sensor_id;sensor_type;location;lat;lon;timestamp;P1;durP1;ratioP1;P2;durP2;ratioP2
4363;SDS011;15337;48.202;12.770;2022-09-09T00:02:03;2.30;;;1.40;;
4363;SDS011;15337;48.202;12.770;2022-09-09T00:04:39;1.83;;;1.30;;
4363;SDS011;15337;48.202;12.770;2022-09-09T00:07:09;4.03;;;1.83;;
4363;SDS011;15337;48.202;12.770;2022-09-09T00:09:45;3.20;;;1.40;;
4363;SDS011;15337;48.202;12.770;2022-09-09T00:12:14;2.07;;;1.40;;
4363;SDS011;15337;48.202;12.770;2022-09-09T00:14:47;2.27;;;1.40;;
4363;SDS011;15337;48.202;12.770;2022-09-09T00:17:24;2.80;;;1.90;;
4363;SDS011;15337;48.202;12.770;2022-09-09T00:20:01;3.77;;;1.73;;
4363;SDS011;15337;48.202;12.770;2022-09-09T00:22:31;2.77;;;1.70;;
4363;SDS011;15337;48.202;12.770;2022-09-09T00:25:01;3.17;;;1.40;;
4363;SDS011;15337;48.202;12.770;2022-09-09T00:27:37;1.40;;;1.30;;
4363;SDS011;15337;48.202;12.770;2022-09-09T00:30:13;2.83;;;1.20;;
4363;SDS011;15337;48.202;12.770;2022-09-09T00:32:44;2.60;;;1.20;;
4363;SDS011;15337;48.202;12.770;2022-09-09T00:35:16;1.70;;;1.43;;
4363;SDS011;15337;48.202;12.770;2022-09-09T00:37:44;3.00;;;1.47;;
4363;SDS011;15337;48.202;12.770;2022-09-09T00:40:18;2.80;;;1.20;;
4363;SDS011;15337;48.202;12.770;2022-09-09T00:42:50;1.40;;;1.17;;
4363;SDS011;15337;48.202;12.770;2022-09-09T00:45:26;1.40;;;1.30;;
4363;SDS011;15337;48.202;12.770;2022-09-09T00:48:12;3.63;;;1.50;;
4363;SDS011;15337;48.202;12.770;2022-09-09T00:50:45;3.97;;;1.43;;
4363;SDS011;15337;48.202;12.770;2022-09-09T00:53:23;1.53;;;1.43;;
4363;SDS011;15337;48.202;12.770;2022-09-09T00:56:01;2.80;;;1.70;;
4363;SDS011;15337;48.202;12.770;2022-09-09T00:58:35;2.17;;;1.30;;
4363;SDS011;15337;48.202;12.770;2022-09-09T01:01:03;1.87;;;1.10;;
4363;SDS011;15337;48.202;12.770;2022-09-09T01:03:34;1.93;;;1.40;;
4363;SDS011;15337;48.202;12.770;2022-09-09T01:06:11;1.70;;;1.53;;
4363;SDS011;15337;48.202;12.770;2022-09-09T01:11:37;6.60;;;1.67;;
4363;SDS011;15337;48.202;12.770;2022-09-09T01:14:19;6.63;;;1.50;;
4363;SDS011;15337;48.202;12.770;2022-09-09T01:16:58;8.33;;;2.80;;
4363;SDS011;15337;48.202;12.770;2022-09-09T01:19:36;1.57;;;1.47;;
4363;SDS011;15337;48.202;12.770;2022-09-09T01:22:13;9.13;;;2.00;;
4363;SDS011;15337;48.202;12.770;2022-09-09T01:25:01;5.13;;;1.60;;
4363;SDS011;15337;48.202;12.770;2022-09-09T01:27:48;1.50;;;1.40;;
4363;SDS011;15337;48.202;12.770;2022-09-09T01:30:17;1.50;;;1.40;;
4363;SDS011;15337;48.202;12.770;2022-09-09T01:32:45;4.03;;;1.60;;
4363;SDS011;15337;48.202;12.770;2022-09-09T01:35:15;5.93;;;2.10;;
4363;SDS011;15337;48.202;12.770;2022-09-09T01:37:49;6.40;;;1.57;;
4363;SDS011;15337;48.202;12.770;2022-09-09T01:40:16;4.30;;;1.40;;
4363;SDS011;15337;48.202;12.770;2022-09-09T01:42:43;4.03;;;1.67;;
4363;SDS011;15337;48.202;12.770;2022-09-09T01:45:12;16.83;;;1.50;;
4363;SDS011;15337;48.202;12.770;2022-09-09T01:47:39;3.70;;;1.50;;
4363;SDS011;15337;48.202;12.770;2022-09-09T01:50:06;1.57;;;1.47;;
4363;SDS011;15337;48.202;12.770;2022-09-09T01:52:37;5.27;;;1.83;;
4363;SDS011;15337;48.202;12.770;2022-09-09T01:55:04;2.17;;;1.97;;
4363;SDS011;15337;48.202;12.770;2022-09-09T01:57:33;2.00;;;1.60;;
4363;SDS011;15337;48.202;12.770;2022-09-09T02:00:08;2.70;;;2.03;;
4363;SDS011;15337;48.202;12.770;2022-09-09T02:02:41;5.83;;;1.53;;
4363;SDS011;15337;48.202;12.770;2022-09-09T02:05:17;1.93;;;1.73;;
4363;SDS011;15337;48.202;12.770;2022-09-09T02:07:52;1.77;;;1.67;;
4363;SDS011;15337;48.202;12.770;2022-09-09T02:10:28;7.43;;;1.60;;
4363;SDS011;15337;48.202;12.770;2022-09-09T02:13:00;1.90;;;1.60;;
4363;SDS011;15337;48.202;12.770;2022-09-09T02:15:32;1.60;;;1.50;;
4363;SDS011;15337;48.202;12.770;2022-09-09T02:18:06;5.03;;;1.70;;
4363;SDS011;15337;48.202;12.770;2022-09-09T02:20:34;1.70;;;1.53;;
4363;SDS011;15337;48.202;12.770;2022-09-09T02:23:04;2.03;;;1.90;;
4363;SDS011;15337;48.202;12.770;2022-09-09T02:25:33;2.37;;;2.10;;
4363;SDS011;15337;48.202;12.770;2022-09-09T02:28:03;3.40;;;2.07;;
4363;SDS011;15337;48.202;12.770;2022-09-09T02:30:32;3.10;;;1.97;;
4363;SDS011;15337;48.202;12.770;2022-09-09T02:33:02;2.50;;;1.73;;
4363;SDS011;15337;48.202;12.770;2022-09-09T02:35:32;2.17;;;2.00;;
4363;SDS011;15337;48.202;12.770;2022-09-09T02:38:04;1.70;;;1.60;;
4363;SDS011;15337;48.202;12.770;2022-09-09T02:40:35;11.80;;;1.60;;
4363;SDS011;15337;48.202;12.770;2022-09-09T02:43:02;1.70;;;1.60;;
4363;SDS011;15337;48.202;12.770;2022-09-09T02:45:40;3.40;;;2.30;;
4363;SDS011;15337;48.202;12.770;2022-09-09T02:48:12;5.93;;;2.30;;
4363;SDS011;15337;48.202;12.770;2022-09-09T02:50:48;2.00;;;1.53;;
4363;SDS011;15337;48.202;12.770;2022-09-09T02:53:22;2.30;;;2.10;;
4363;SDS011;15337;48.202;12.770;2022-09-09T02:55:57;5.07;;;1.43;;
4363;SDS011;15337;48.202;12.770;2022-09-09T02:58:27;3.10;;;1.63;;
4363;SDS011;15337;48.202;12.770;2022-09-09T03:00:54;14.23;;;2.37;;
4363;SDS011;15337;48.202;12.770;2022-09-09T03:03:22;1.97;;;1.70;;
4363;SDS011;15337;48.202;12.770;2022-09-09T03:05:51;4.00;;;2.10;;
4363;SDS011;15337;48.202;12.770;2022-09-09T03:08:18;2.47;;;1.90;;
4363;SDS011;15337;48.202;12.770;2022-09-09T03:10:45;3.60;;;2.00;;
4363;SDS011;15337;48.202;12.770;2022-09-09T03:13:12;2.57;;;1.87;;
4363;SDS011;15337;48.202;12.770;2022-09-09T03:15:40;3.73;;;1.67;;
4363;SDS011;15337;48.202;12.770;2022-09-09T03:18:08;4.03;;;2.13;;
4363;SDS011;15337;48.202;12.770;2022-09-09T03:20:35;4.10;;;3.80;;
4363;SDS011;15337;48.202;12.770;2022-09-09T03:23:03;3.83;;;3.53;;
4363;SDS011;15337;48.202;12.770;2022-09-09T03:25:30;9.67;;;3.97;;
4363;SDS011;15337;48.202;12.770;2022-09-09T03:27:58;6.93;;;3.40;;
4363;SDS011;15337;48.202;12.770;2022-09-09T03:30:26;2.50;;;2.30;;
4363;SDS011;15337;48.202;12.770;2022-09-09T03:32:53;2.10;;;2.00;;
4363;SDS011;15337;48.202;12.770;2022-09-09T03:35:21;7.77;;;2.57;;
4363;SDS011;15337;48.202;12.770;2022-09-09T03:37:48;2.53;;;1.87;;
4363;SDS011;15337;48.202;12.770;2022-09-09T03:40:17;3.90;;;2.33;;
4363;SDS011;15337;48.202;12.770;2022-09-09T03:42:45;4.50;;;2.30;;
4363;SDS011;15337;48.202;12.770;2022-09-09T03:45:13;2.23;;;2.03;;
4363;SDS011;15337;48.202;12.770;2022-09-09T03:47:40;6.43;;;2.20;;
4363;SDS011;15337;48.202;12.770;2022-09-09T03:50:07;2.23;;;1.63;;
4363;SDS011;15337;48.202;12.770;2022-09-09T03:52:36;3.20;;;1.83;;
4363;SDS011;15337;48.202;12.770;2022-09-09T03:55:04;3.00;;;1.80;;
4363;SDS011;15337;48.202;12.770;2022-09-09T03:57:33;2.83;;;2.10;;
4363;SDS011;15337;48.202;12.770;2022-09-09T04:00:01;2.57;;;2.37;;
4363;SDS011;15337;48.202;12.770;2022-09-09T04:02:28;2.80;;;1.87;;
4363;SDS011;15337;48.202;12.770;2022-09-09T04:04:55;2.90;;;1.97;;
4363;SDS011;15337;48.202;12.770;2022-09-09T04:07:22;4.00;;;2.00;;
4363;SDS011;15337;48.202;12.770;2022-09-09T04:09:49;6.00;;;3.10;;
4363;SDS011;15337;48.202;12.770;2022-09-09T04:12:16;2.03;;;1.90;;
4363;SDS011;15337;48.202;12.770;2022-09-09T04:14:44;2.77;;;2.00;;
4363;SDS011;15337;48.202;12.770;2022-09-09T04:17:11;4.17;;;2.20;;
4363;SDS011;15337;48.202;12.770;2022-09-09T04:19:38;1.97;;;1.87;;
4363;SDS011;15337;48.202;12.770;2022-09-09T04:22:05;2.97;;;2.67;;
4363;SDS011;15337;48.202;12.770;2022-09-09T04:24:31;5.50;;;2.50;;
4363;SDS011;15337;48.202;12.770;2022-09-09T04:26:58;2.30;;;2.20;;
4363;SDS011;15337;48.202;12.770;2022-09-09T04:29:25;2.50;;;2.30;;
4363;SDS011;15337;48.202;12.770;2022-09-09T04:31:53;3.80;;;2.50;;
4363;SDS011;15337;48.202;12.770;2022-09-09T04:34:20;4.27;;;3.13;;
4363;SDS011;15337;48.202;12.770;2022-09-09T04:36:47;2.87;;;2.70;;
4363;SDS011;15337;48.202;12.770;2022-09-09T04:39:14;4.00;;;2.43;;
4363;SDS011;15337;48.202;12.770;2022-09-09T04:41:41;5.77;;;3.30;;
4363;SDS011;15337;48.202;12.770;2022-09-09T04:44:07;6.60;;;3.20;;
4363;SDS011;15337;48.202;12.770;2022-09-09T04:46:35;15.43;;;3.03;;
4363;SDS011;15337;48.202;12.770;2022-09-09T04:49:03;3.50;;;3.30;;
4363;SDS011;15337;48.202;12.770;2022-09-09T04:51:30;9.70;;;6.70;;
4363;SDS011;15337;48.202;12.770;2022-09-09T04:53:57;3.90;;;3.17;;
4363;SDS011;15337;48.202;12.770;2022-09-09T04:56:24;3.70;;;3.17;;
4363;SDS011;15337;48.202;12.770;2022-09-09T04:58:53;2.63;;;2.53;;
4363;SDS011;15337;48.202;12.770;2022-09-09T05:01:21;5.20;;;3.00;;
4363;SDS011;15337;48.202;12.770;2022-09-09T05:03:49;4.97;;;3.43;;
4363;SDS011;15337;48.202;12.770;2022-09-09T05:06:18;4.47;;;2.77;;
4363;SDS011;15337;48.202;12.770;2022-09-09T05:08:47;7.90;;;3.40;;
4363;SDS011;15337;48.202;12.770;2022-09-09T05:11:18;6.17;;;3.27;;
4363;SDS011;15337;48.202;12.770;2022-09-09T05:13:48;2.40;;;2.20;;
4363;SDS011;15337;48.202;12.770;2022-09-09T05:16:16;5.13;;;2.50;;
4363;SDS011;15337;48.202;12.770;2022-09-09T05:18:43;6.63;;;3.00;;
4363;SDS011;15337;48.202;12.770;2022-09-09T05:21:11;3.20;;;3.00;;
4363;SDS011;15337;48.202;12.770;2022-09-09T05:23:41;7.03;;;2.87;;
4363;SDS011;15337;48.202;12.770;2022-09-09T05:26:09;3.97;;;2.57;;
4363;SDS011;15337;48.202;12.770;2022-09-09T05:28:39;4.47;;;3.50;;
4363;SDS011;15337;48.202;12.770;2022-09-09T05:31:06;4.20;;;2.87;;
4363;SDS011;15337;48.202;12.770;2022-09-09T05:33:36;4.27;;;2.50;;
4363;SDS011;15337;48.202;12.770;2022-09-09T05:36:06;3.17;;;2.83;;
4363;SDS011;15337;48.202;12.770;2022-09-09T05:38:35;2.90;;;2.60;;
4363;SDS011;15337;48.202;12.770;2022-09-09T05:41:04;3.00;;;2.80;;
4363;SDS011;15337;48.202;12.770;2022-09-09T05:43:32;3.10;;;2.70;;
4363;SDS011;15337;48.202;12.770;2022-09-09T05:46:01;2.60;;;2.40;;
4363;SDS011;15337;48.202;12.770;2022-09-09T05:48:31;5.40;;;2.37;;
4363;SDS011;15337;48.202;12.770;2022-09-09T05:50:59;9.10;;;2.50;;
4363;SDS011;15337;48.202;12.770;2022-09-09T05:53:27;2.97;;;2.40;;
4363;SDS011;15337;48.202;12.770;2022-09-09T05:56:00;11.60;;;3.20;;
4363;SDS011;15337;48.202;12.770;2022-09-09T05:58:31;2.57;;;2.37;;
4363;SDS011;15337;48.202;12.770;2022-09-09T06:01:02;2.60;;;2.40;;
4363;SDS011;15337;48.202;12.770;2022-09-09T06:03:30;3.80;;;2.90;;
4363;SDS011;15337;48.202;12.770;2022-09-09T06:05:57;2.30;;;2.17;;
4363;SDS011;15337;48.202;12.770;2022-09-09T06:08:24;2.60;;;2.50;;
4363;SDS011;15337;48.202;12.770;2022-09-09T06:10:52;3.20;;;2.97;;
4363;SDS011;15337;48.202;12.770;2022-09-09T06:13:19;2.73;;;2.53;;
4363;SDS011;15337;48.202;12.770;2022-09-09T06:15:50;2.50;;;2.30;;
4363;SDS011;15337;48.202;12.770;2022-09-09T06:18:17;4.80;;;2.97;;
4363;SDS011;15337;48.202;12.770;2022-09-09T06:20:52;6.60;;;3.43;;
4363;SDS011;15337;48.202;12.770;2022-09-09T06:23:20;8.73;;;3.07;;
4363;SDS011;15337;48.202;12.770;2022-09-09T06:25:47;3.13;;;2.93;;
4363;SDS011;15337;48.202;12.770;2022-09-09T06:28:15;2.77;;;2.57;;
4363;SDS011;15337;48.202;12.770;2022-09-09T06:30:42;3.30;;;2.30;;
4363;SDS011;15337;48.202;12.770;2022-09-09T06:33:11;3.90;;;3.60;;
4363;SDS011;15337;48.202;12.770;2022-09-09T06:35:38;2.30;;;2.07;;
4363;SDS011;15337;48.202;12.770;2022-09-09T06:38:05;2.90;;;2.60;;
4363;SDS011;15337;48.202;12.770;2022-09-09T06:40:33;2.73;;;2.53;;
4363;SDS011;15337;48.202;12.770;2022-09-09T06:43:00;4.23;;;3.13;;
4363;SDS011;15337;48.202;12.770;2022-09-09T06:45:27;3.37;;;2.40;;
4363;SDS011;15337;48.202;12.770;2022-09-09T06:47:54;2.90;;;2.70;;
4363;SDS011;15337;48.202;12.770;2022-09-09T06:50:24;5.70;;;3.27;;
4363;SDS011;15337;48.202;12.770;2022-09-09T06:52:51;3.10;;;2.90;;
4363;SDS011;15337;48.202;12.770;2022-09-09T06:55:18;5.43;;;3.20;;
4363;SDS011;15337;48.202;12.770;2022-09-09T06:57:45;4.83;;;3.87;;
4363;SDS011;15337;48.202;12.770;2022-09-09T07:00:13;4.27;;;3.53;;
4363;SDS011;15337;48.202;12.770;2022-09-09T07:02:40;10.77;;;3.30;;
4363;SDS011;15337;48.202;12.770;2022-09-09T07:05:07;3.60;;;3.40;;
4363;SDS011;15337;48.202;12.770;2022-09-09T07:07:36;3.73;;;3.43;;
4363;SDS011;15337;48.202;12.770;2022-09-09T07:10:03;3.60;;;3.40;;
4363;SDS011;15337;48.202;12.770;2022-09-09T07:12:30;3.70;;;3.37;;
4363;SDS011;15337;48.202;12.770;2022-09-09T07:14:57;4.13;;;3.73;;
4363;SDS011;15337;48.202;12.770;2022-09-09T07:17:25;3.70;;;3.50;;
4363;SDS011;15337;48.202;12.770;2022-09-09T07:19:53;4.00;;;3.40;;
4363;SDS011;15337;48.202;12.770;2022-09-09T07:22:20;6.10;;;3.37;;
4363;SDS011;15337;48.202;12.770;2022-09-09T07:24:49;3.83;;;3.10;;
4363;SDS011;15337;48.202;12.770;2022-09-09T07:27:16;3.67;;;3.30;;
4363;SDS011;15337;48.202;12.770;2022-09-09T07:29:42;3.40;;;3.20;;
4363;SDS011;15337;48.202;12.770;2022-09-09T07:32:10;3.13;;;2.93;;
4363;SDS011;15337;48.202;12.770;2022-09-09T07:34:37;10.20;;;3.47;;
4363;SDS011;15337;48.202;12.770;2022-09-09T07:37:04;5.23;;;3.30;;
4363;SDS011;15337;48.202;12.770;2022-09-09T07:39:30;4.10;;;3.70;;
4363;SDS011;15337;48.202;12.770;2022-09-09T07:41:59;3.20;;;2.70;;
4363;SDS011;15337;48.202;12.770;2022-09-09T07:44:26;7.13;;;3.37;;
4363;SDS011;15337;48.202;12.770;2022-09-09T07:46:53;3.57;;;3.23;;
4363;SDS011;15337;48.202;12.770;2022-09-09T07:49:19;6.20;;;3.10;;
4363;SDS011;15337;48.202;12.770;2022-09-09T07:51:47;4.23;;;3.50;;
4363;SDS011;15337;48.202;12.770;2022-09-09T07:54:15;3.10;;;2.90;;
4363;SDS011;15337;48.202;12.770;2022-09-09T07:56:45;4.10;;;3.60;;
4363;SDS011;15337;48.202;12.770;2022-09-09T07:59:13;3.20;;;3.00;;
4363;SDS011;15337;48.202;12.770;2022-09-09T08:01:41;4.43;;;3.10;;
4363;SDS011;15337;48.202;12.770;2022-09-09T08:04:10;3.20;;;3.00;;
4363;SDS011;15337;48.202;12.770;2022-09-09T08:06:40;8.07;;;3.50;;
4363;SDS011;15337;48.202;12.770;2022-09-09T08:09:08;4.03;;;3.63;;
4363;SDS011;15337;48.202;12.770;2022-09-09T08:11:36;4.10;;;3.70;;
4363;SDS011;15337;48.202;12.770;2022-09-09T08:14:04;4.03;;;2.50;;
4363;SDS011;15337;48.202;12.770;2022-09-09T08:16:34;3.33;;;3.03;;
4363;SDS011;15337;48.202;12.770;2022-09-09T08:19:03;3.73;;;3.10;;
4363;SDS011;15337;48.202;12.770;2022-09-09T08:21:32;7.78;;;3.55;;
4363;SDS011;15337;48.202;12.770;2022-09-09T08:24:02;3.78;;;3.38;;
4363;SDS011;15337;48.202;12.770;2022-09-09T08:26:30;3.88;;;3.17;;
4363;SDS011;15337;48.202;12.770;2022-09-09T08:28:59;4.05;;;3.65;;
4363;SDS011;15337;48.202;12.770;2022-09-09T08:31:29;3.15;;;2.85;;
4363;SDS011;15337;48.202;12.770;2022-09-09T08:33:59;4.05;;;3.17;;
4363;SDS011;15337;48.202;12.770;2022-09-09T08:36:29;3.55;;;3.05;;
4363;SDS011;15337;48.202;12.770;2022-09-09T08:38:58;3.47;;;3.17;;
4363;SDS011;15337;48.202;12.770;2022-09-09T08:41:35;4.93;;;3.40;;
4363;SDS011;15337;48.202;12.770;2022-09-09T08:44:22;4.57;;;3.03;;
4363;SDS011;15337;48.202;12.770;2022-09-09T08:46:59;4.50;;;2.83;;
4363;SDS011;15337;48.202;12.770;2022-09-09T08:49:41;3.38;;;3.08;;
4363;SDS011;15337;48.202;12.770;2022-09-09T08:52:28;3.75;;;2.97;;
4363;SDS011;15337;48.202;12.770;2022-09-09T08:54:58;5.18;;;2.72;;
4363;SDS011;15337;48.202;12.770;2022-09-09T08:57:32;3.53;;;3.33;;
4363;SDS011;15337;48.202;12.770;2022-09-09T08:59:59;2.72;;;2.60;;
4363;SDS011;15337;48.202;12.770;2022-09-09T09:02:28;3.63;;;2.85;;
4363;SDS011;15337;48.202;12.770;2022-09-09T09:05:07;3.15;;;2.30;;
4363;SDS011;15337;48.202;12.770;2022-09-09T09:07:47;2.72;;;2.53;;
4363;SDS011;15337;48.202;12.770;2022-09-09T09:10:29;2.83;;;2.70;;
4363;SDS011;15337;48.202;12.770;2022-09-09T09:13:07;6.78;;;2.70;;
4363;SDS011;15337;48.202;12.770;2022-09-09T09:15:39;3.90;;;2.80;;
4363;SDS011;15337;48.202;12.770;2022-09-09T09:18:08;3.55;;;3.25;;
4363;SDS011;15337;48.202;12.770;2022-09-09T09:20:42;4.43;;;4.03;;
4363;SDS011;15337;48.202;12.770;2022-09-09T09:23:19;5.72;;;5.22;;
4363;SDS011;15337;48.202;12.770;2022-09-09T09:25:48;5.85;;;3.38;;
4363;SDS011;15337;48.202;12.770;2022-09-09T09:28:18;5.18;;;3.72;;
4363;SDS011;15337;48.202;12.770;2022-09-09T09:30:49;6.32;;;2.45;;
4363;SDS011;15337;48.202;12.770;2022-09-09T09:33:23;10.23;;;2.00;;
4363;SDS011;15337;48.202;12.770;2022-09-09T09:35:55;1.80;;;1.70;;
4363;SDS011;15337;48.202;12.770;2022-09-09T09:38:24;1.63;;;1.52;;
4363;SDS011;15337;48.202;12.770;2022-09-09T09:40:53;2.45;;;1.80;;
4363;SDS011;15337;48.202;12.770;2022-09-09T09:43:24;4.13;;;1.80;;
4363;SDS011;15337;48.202;12.770;2022-09-09T09:45:53;1.55;;;1.38;;
4363;SDS011;15337;48.202;12.770;2022-09-09T09:48:20;1.90;;;1.80;;
4363;SDS011;15337;48.202;12.770;2022-09-09T09:50:48;2.08;;;1.98;;
4363;SDS011;15337;48.202;12.770;2022-09-09T09:53:19;2.25;;;2.05;;
4363;SDS011;15337;48.202;12.770;2022-09-09T09:55:50;3.65;;;2.00;;
4363;SDS011;15337;48.202;12.770;2022-09-09T09:58:20;4.00;;;2.33;;
4363;SDS011;15337;48.202;12.770;2022-09-09T10:00:48;4.05;;;2.10;;
4363;SDS011;15337;48.202;12.770;2022-09-09T10:03:20;7.38;;;2.17;;
4363;SDS011;15337;48.202;12.770;2022-09-09T10:05:49;2.30;;;2.10;;
4363;SDS011;15337;48.202;12.770;2022-09-09T10:08:17;2.70;;;2.50;;
4363;SDS011;15337;48.202;12.770;2022-09-09T10:11:02;2.88;;;2.67;;
4363;SDS011;15337;48.202;12.770;2022-09-09T10:13:41;2.80;;;2.60;;
4363;SDS011;15337;48.202;12.770;2022-09-09T10:16:23;2.67;;;2.47;;
4363;SDS011;15337;48.202;12.770;2022-09-09T10:18:58;4.63;;;2.28;;
4363;SDS011;15337;48.202;12.770;2022-09-09T10:24:44;4.43;;;2.90;;
4363;SDS011;15337;48.202;12.770;2022-09-09T10:27:29;2.72;;;2.53;;
4363;SDS011;15337;48.202;12.770;2022-09-09T10:30:10;2.65;;;2.45;;
4363;SDS011;15337;48.202;12.770;2022-09-09T10:32:45;3.95;;;2.90;;
4363;SDS011;15337;48.202;12.770;2022-09-09T10:35:26;5.63;;;2.72;;
4363;SDS011;15337;48.202;12.770;2022-09-09T10:40:48;3.17;;;2.97;;
4363;SDS011;15337;48.202;12.770;2022-09-09T10:43:33;2.45;;;2.35;;
4363;SDS011;15337;48.202;12.770;2022-09-09T10:46:10;2.60;;;2.40;;
4363;SDS011;15337;48.202;12.770;2022-09-09T10:48:46;3.88;;;3.00;;
4363;SDS011;15337;48.202;12.770;2022-09-09T10:51:28;6.10;;;2.78;;
4363;SDS011;15337;48.202;12.770;2022-09-09T10:56:56;4.30;;;4.00;;
4363;SDS011;15337;48.202;12.770;2022-09-09T10:59:27;5.20;;;3.72;;
4363;SDS011;15337;48.202;12.770;2022-09-09T11:01:58;5.95;;;4.50;;
4363;SDS011;15337;48.202;12.770;2022-09-09T11:04:32;7.82;;;4.80;;
4363;SDS011;15337;48.202;12.770;2022-09-09T11:07:05;5.95;;;4.85;;
4363;SDS011;15337;48.202;12.770;2022-09-09T11:09:37;3.47;;;3.15;;
4363;SDS011;15337;48.202;12.770;2022-09-09T11:12:10;5.00;;;4.60;;
4363;SDS011;15337;48.202;12.770;2022-09-09T11:14:42;4.55;;;4.25;;
4363;SDS011;15337;48.202;12.770;2022-09-09T11:17:12;4.25;;;3.95;;
4363;SDS011;15337;48.202;12.770;2022-09-09T11:19:43;5.30;;;4.90;;
4363;SDS011;15337;48.202;12.770;2022-09-09T11:22:15;5.22;;;4.93;;
4363;SDS011;15337;48.202;12.770;2022-09-09T11:24:47;5.68;;;5.28;;
4363;SDS011;15337;48.202;12.770;2022-09-09T11:27:20;5.90;;;4.25;;
4363;SDS011;15337;48.202;12.770;2022-09-09T11:29:57;7.00;;;4.60;;
4363;SDS011;15337;48.202;12.770;2022-09-09T11:33:18;8.93;;;4.80;;
4363;SDS011;15337;48.202;12.770;2022-09-09T11:36:03;6.75;;;5.20;;
4363;SDS011;15337;48.202;12.770;2022-09-09T11:38:44;4.40;;;4.10;;
4363;SDS011;15337;48.202;12.770;2022-09-09T11:41:13;4.72;;;4.18;;
4363;SDS011;15337;48.202;12.770;2022-09-09T11:43:43;4.50;;;4.15;;
4363;SDS011;15337;48.202;12.770;2022-09-09T11:46:12;4.53;;;4.22;;
4363;SDS011;15337;48.202;12.770;2022-09-09T11:48:42;5.07;;;4.57;;
4363;SDS011;15337;48.202;12.770;2022-09-09T11:51:12;5.20;;;4.22;;
4363;SDS011;15337;48.202;12.770;2022-09-09T11:53:53;5.80;;;3.97;;
4363;SDS011;15337;48.202;12.770;2022-09-09T11:56:26;5.15;;;4.65;;
4363;SDS011;15337;48.202;12.770;2022-09-09T11:59:00;5.82;;;4.63;;
4363;SDS011;15337;48.202;12.770;2022-09-09T12:01:38;7.72;;;4.43;;
4363;SDS011;15337;48.202;12.770;2022-09-09T12:04:21;4.55;;;4.15;;
4363;SDS011;15337;48.202;12.770;2022-09-09T12:06:56;5.80;;;4.43;;
4363;SDS011;15337;48.202;12.770;2022-09-09T12:09:28;4.70;;;3.95;;
4363;SDS011;15337;48.202;12.770;2022-09-09T12:12:27;7.50;;;3.60;;
4363;SDS011;15337;48.202;12.770;2022-09-09T12:14:59;7.63;;;6.15;;
4363;SDS011;15337;48.202;12.770;2022-09-09T12:17:29;11.18;;;4.00;;
4363;SDS011;15337;48.202;12.770;2022-09-09T12:20:03;5.40;;;3.85;;
4363;SDS011;15337;48.202;12.770;2022-09-09T12:22:39;3.60;;;3.30;;
4363;SDS011;15337;48.202;12.770;2022-09-09T12:25:19;5.55;;;4.85;;
4363;SDS011;15337;48.202;12.770;2022-09-09T12:27:57;5.03;;;3.70;;
4363;SDS011;15337;48.202;12.770;2022-09-09T12:30:31;4.90;;;4.47;;
4363;SDS011;15337;48.202;12.770;2022-09-09T12:33:07;9.57;;;3.55;;
4363;SDS011;15337;48.202;12.770;2022-09-09T12:35:37;3.92;;;3.63;;
4363;SDS011;15337;48.202;12.770;2022-09-09T12:38:06;3.95;;;3.75;;
4363;SDS011;15337;48.202;12.770;2022-09-09T12:40:39;6.05;;;4.30;;
4363;SDS011;15337;48.202;12.770;2022-09-09T12:43:16;3.60;;;3.40;;
4363;SDS011;15337;48.202;12.770;2022-09-09T12:45:46;8.88;;;4.22;;
4363;SDS011;15337;48.202;12.770;2022-09-09T12:48:15;12.55;;;3.72;;
4363;SDS011;15337;48.202;12.770;2022-09-09T12:50:45;3.63;;;3.42;;
4363;SDS011;15337;48.202;12.770;2022-09-09T12:53:15;5.10;;;4.13;;
4363;SDS011;15337;48.202;12.770;2022-09-09T12:55:49;4.15;;;3.67;;
4363;SDS011;15337;48.202;12.770;2022-09-09T12:58:18;3.80;;;3.60;;
4363;SDS011;15337;48.202;12.770;2022-09-09T13:00:50;8.70;;;4.45;;
4363;SDS011;15337;48.202;12.770;2022-09-09T13:03:18;3.53;;;3.33;;
4363;SDS011;15337;48.202;12.770;2022-09-09T13:05:46;4.40;;;4.00;;
4363;SDS011;15337;48.202;12.770;2022-09-09T13:08:13;4.78;;;4.35;;
4363;SDS011;15337;48.202;12.770;2022-09-09T13:10:46;9.20;;;5.07;;
4363;SDS011;15337;48.202;12.770;2022-09-09T13:13:19;5.53;;;5.07;;
4363;SDS011;15337;48.202;12.770;2022-09-09T13:15:49;4.88;;;4.35;;
4363;SDS011;15337;48.202;12.770;2022-09-09T13:18:22;10.55;;;4.95;;
4363;SDS011;15337;48.202;12.770;2022-09-09T13:20:51;7.13;;;4.53;;
4363;SDS011;15337;48.202;12.770;2022-09-09T13:23:18;3.50;;;3.25;;
4363;SDS011;15337;48.202;12.770;2022-09-09T13:25:53;3.70;;;3.40;;
4363;SDS011;15337;48.202;12.770;2022-09-09T13:28:22;3.08;;;2.97;;
4363;SDS011;15337;48.202;12.770;2022-09-09T13:30:59;5.43;;;3.63;;
4363;SDS011;15337;48.202;12.770;2022-09-09T13:33:33;3.22;;;3.03;;
4363;SDS011;15337;48.202;12.770;2022-09-09T13:36:02;4.55;;;3.50;;
4363;SDS011;15337;48.202;12.770;2022-09-09T13:38:32;7.80;;;3.45;;
4363;SDS011;15337;48.202;12.770;2022-09-09T13:41:03;3.15;;;2.95;;
4363;SDS011;15337;48.202;12.770;2022-09-09T13:43:34;3.20;;;2.90;;
4363;SDS011;15337;48.202;12.770;2022-09-09T13:46:06;3.40;;;2.30;;
4363;SDS011;15337;48.202;12.770;2022-09-09T13:48:54;5.05;;;2.40;;
4363;SDS011;15337;48.202;12.770;2022-09-09T13:51:26;2.72;;;2.53;;
4363;SDS011;15337;48.202;12.770;2022-09-09T13:53:58;3.95;;;2.65;;
4363;SDS011;15337;48.202;12.770;2022-09-09T13:56:25;2.97;;;2.78;;
4363;SDS011;15337;48.202;12.770;2022-09-09T13:58:53;2.88;;;2.67;;
4363;SDS011;15337;48.202;12.770;2022-09-09T14:01:21;2.70;;;2.50;;
4363;SDS011;15337;48.202;12.770;2022-09-09T14:03:48;3.05;;;2.55;;
4363;SDS011;15337;48.202;12.770;2022-09-09T14:06:15;2.67;;;2.47;;
4363;SDS011;15337;48.202;12.770;2022-09-09T14:08:43;2.92;;;2.67;;
4363;SDS011;15337;48.202;12.770;2022-09-09T14:11:11;3.08;;;2.60;;
4363;SDS011;15337;48.202;12.770;2022-09-09T14:13:39;3.17;;;2.83;;
4363;SDS011;15337;48.202;12.770;2022-09-09T14:16:06;2.55;;;2.35;;
4363;SDS011;15337;48.202;12.770;2022-09-09T14:18:36;2.85;;;2.67;;
4363;SDS011;15337;48.202;12.770;2022-09-09T14:21:04;3.42;;;2.88;;
4363;SDS011;15337;48.202;12.770;2022-09-09T14:23:31;17.95;;;3.08;;
4363;SDS011;15337;48.202;12.770;2022-09-09T14:25:57;5.25;;;2.58;;
4363;SDS011;15337;48.202;12.770;2022-09-09T14:28:24;3.05;;;2.85;;
4363;SDS011;15337;48.202;12.770;2022-09-09T14:30:51;3.90;;;2.40;;
4363;SDS011;15337;48.202;12.770;2022-09-09T14:33:18;4.63;;;2.10;;
4363;SDS011;15337;48.202;12.770;2022-09-09T14:35:46;2.20;;;2.10;;
4363;SDS011;15337;48.202;12.770;2022-09-09T14:38:13;7.38;;;1.85;;
4363;SDS011;15337;48.202;12.770;2022-09-09T14:40:40;1.65;;;1.55;;
4363;SDS011;15337;48.202;12.770;2022-09-09T14:43:11;4.70;;;1.80;;
4363;SDS011;15337;48.202;12.770;2022-09-09T14:45:38;1.92;;;1.80;;
4363;SDS011;15337;48.202;12.770;2022-09-09T14:48:05;2.58;;;2.38;;
4363;SDS011;15337;48.202;12.770;2022-09-09T14:50:32;1.70;;;1.60;;
4363;SDS011;15337;48.202;12.770;2022-09-09T14:53:01;1.60;;;1.50;;
4363;SDS011;15337;48.202;12.770;2022-09-09T14:55:28;2.47;;;1.30;;
4363;SDS011;15337;48.202;12.770;2022-09-09T14:57:55;1.70;;;1.50;;
4363;SDS011;15337;48.202;12.770;2022-09-09T15:00:21;1.73;;;1.63;;
4363;SDS011;15337;48.202;12.770;2022-09-09T15:02:51;2.38;;;1.20;;
4363;SDS011;15337;48.202;12.770;2022-09-09T15:05:18;4.28;;;1.55;;
4363;SDS011;15337;48.202;12.770;2022-09-09T15:07:45;1.70;;;1.48;;
4363;SDS011;15337;48.202;12.770;2022-09-09T15:10:14;1.98;;;1.40;;
4363;SDS011;15337;48.202;12.770;2022-09-09T15:12:42;1.20;;;1.10;;
4363;SDS011;15337;48.202;12.770;2022-09-09T15:15:09;1.80;;;1.60;;
4363;SDS011;15337;48.202;12.770;2022-09-09T15:17:37;3.05;;;1.33;;
4363;SDS011;15337;48.202;12.770;2022-09-09T15:20:05;1.52;;;1.42;;
4363;SDS011;15337;48.202;12.770;2022-09-09T15:22:32;1.60;;;1.10;;